Time;durP1;ratioP1;P1;durP2;ratioP2;P2;SDS_P1;SDS_P2;PMS_P1;PMS_P2;Temp;Humidity;BMP_temperature;BMP_pressure;BME280_temperature;BME280_humidity;BME280_pressure;Samples;Min_cycle;Max_cycle;Signal;HPM_P1;HPM_P2
2022/04/12 00:00:56;;;;;;;4.68;2.95;;;;;;;;;;5010585;28;20022;-75
2022/04/12 00:03:22;;;;;;;7.05;2.97;;;;;;;;;;5010873;28;20464;-75
2022/04/12 00:05:47;;;;;;;3.65;2.60;;;;;;;;;;5010045;28;20030;-76
2022/04/12 00:08:13;;;;;;;4.35;3.00;;;;;;;;;;5010549;28;20022;-75
2022/04/12 00:10:38;;;;;;;4.18;2.78;;;;;;;;;;5010649;28;20018;-74
2022/04/12 00:13:04;;;;;;;3.97;2.83;;;;;;;;;;5010748;28;20030;-74
2022/04/12 00:15:30;;;;;;;5.22;3.50;;;;;;;;;;5009666;28;20121;-75
2022/04/12 00:20:39;;;;;;;3.40;2.70;;;;;;;;;;5010579;28;20080;-75
2022/04/12 00:23:05;;;;;;;3.08;2.70;;;;;;;;;;5010406;28;20030;-74
2022/04/12 00:25:30;;;;;;;2.60;2.38;;;;;;;;;;5010436;28;20029;-75
2022/04/12 00:27:58;;;;;;;3.95;2.67;;;;;;;;;;5009955;28;20619;-74
2022/04/12 00:30:24;;;;;;;4.00;3.00;;;;;;;;;;5010485;28;20033;-75
2022/04/12 00:32:50;;;;;;;3.63;2.45;;;;;;;;;;5010431;28;20448;-75
2022/04/12 00:35:17;;;;;;;2.83;2.20;;;;;;;;;;5010199;28;20034;-75
2022/04/12 00:37:43;;;;;;;3.72;2.33;;;;;;;;;;5009855;28;20113;-76
2022/04/12 00:40:09;;;;;;;3.45;2.42;;;;;;;;;;5009937;28;20120;-75
2022/04/12 00:42:34;;;;;;;3.28;2.60;;;;;;;;;;5010217;28;20530;-75
2022/04/12 00:44:59;;;;;;;4.05;2.90;;;;;;;;;;5010068;28;20037;-75
2022/04/12 00:47:25;;;;;;;5.18;2.97;;;;;;;;;;5013333;28;20041;-75
2022/04/12 00:49:50;;;;;;;3.78;2.78;;;;;;;;;;5012214;28;20029;-75
2022/04/12 00:52:16;;;;;;;2.63;2.30;;;;;;;;;;5012226;28;20026;-75
2022/04/12 00:54:42;;;;;;;3.20;2.35;;;;;;;;;;5013569;28;20041;-74
2022/04/12 00:57:08;;;;;;;2.97;2.42;;;;;;;;;;5013301;28;20120;-75
2022/04/12 00:59:35;;;;;;;3.67;2.67;;;;;;;;;;5013350;28;20029;-73
2022/04/12 01:02:05;;;;;;;7.28;2.80;;;;;;;;;;5012188;28;20026;-75
2022/04/12 01:04:31;;;;;;;4.07;3.13;;;;;;;;;;5013377;28;20077;-75
2022/04/12 01:06:57;;;;;;;5.03;3.25;;;;;;;;;;5013244;28;20034;-75
2022/04/12 01:09:26;;;;;;;4.15;2.80;;;;;;;;;;5013371;28;20026;-75
2022/04/12 01:11:52;;;;;;;4.28;3.33;;;;;;;;;;5013341;28;20112;-76
2022/04/12 01:14:17;;;;;;;6.88;3.03;;;;;;;;;;5013378;28;20022;-75
2022/04/12 01:16:43;;;;;;;7.00;3.67;;;;;;;;;;5013007;28;20022;-75
2022/04/12 01:19:08;;;;;;;6.50;3.80;;;;;;;;;;5012977;28;20030;-74
2022/04/12 01:21:46;;;;;;;6.28;3.53;;;;;;;;;;5012995;28;20030;-75
2022/04/12 01:24:12;;;;;;;4.38;2.70;;;;;;;;;;5012932;28;20026;-76
2022/04/12 01:26:39;;;;;;;4.05;2.83;;;;;;;;;;5012588;28;20025;-75
2022/04/12 01:29:04;;;;;;;5.60;3.00;;;;;;;;;;5012810;28;20092;-76
2022/04/12 01:31:29;;;;;;;3.95;2.80;;;;;;;;;;5012791;28;20463;-75
2022/04/12 01:33:55;;;;;;;5.63;2.63;;;;;;;;;;5012530;28;20030;-75
2022/04/12 01:36:20;;;;;;;3.38;2.80;;;;;;;;;;5012296;28;20025;-75
2022/04/12 01:38:46;;;;;;;4.80;2.97;;;;;;;;;;5012523;28;20018;-75
2022/04/12 01:41:11;;;;;;;3.65;2.70;;;;;;;;;;5012822;28;20026;-75
2022/04/12 01:43:36;;;;;;;4.13;2.55;;;;;;;;;;5012682;28;20080;-75
2022/04/12 01:46:02;;;;;;;5.00;2.67;;;;;;;;;;5012333;28;20041;-75
2022/04/12 01:48:27;;;;;;;3.03;2.53;;;;;;;;;;5012244;28;20067;-75
2022/04/12 01:50:53;;;;;;;3.13;2.47;;;;;;;;;;5012622;28;20018;-76
2022/04/12 01:53:18;;;;;;;3.85;2.70;;;;;;;;;;5012467;28;20026;-75
2022/04/12 01:55:43;;;;;;;6.43;2.60;;;;;;;;;;5011139;28;20081;-74
2022/04/12 01:58:09;;;;;;;4.85;2.75;;;;;;;;;;5011441;28;20694;-75
2022/04/12 02:00:36;;;;;;;6.18;2.85;;;;;;;;;;5012207;28;20034;-75
2022/04/12 02:03:02;;;;;;;5.78;3.30;;;;;;;;;;5011805;28;20091;-75
2022/04/12 02:05:28;;;;;;;5.40;2.88;;;;;;;;;;5012356;28;20022;-75
2022/04/12 02:07:53;;;;;;;5.35;3.03;;;;;;;;;;5011984;28;20095;-75
2022/04/12 02:10:21;;;;;;;4.07;2.33;;;;;;;;;;5011886;28;20097;-75
2022/04/12 02:12:48;;;;;;;4.68;2.55;;;;;;;;;;5011937;28;20128;-75
2022/04/12 02:15:13;;;;;;;3.72;2.42;;;;;;;;;;5012288;28;20416;-74
2022/04/12 02:17:38;;;;;;;4.57;2.28;;;;;;;;;;5011716;28;20037;-75
2022/04/12 02:20:04;;;;;;;3.42;2.60;;;;;;;;;;5011765;28;20029;-75
2022/04/12 02:22:29;;;;;;;3.50;2.60;;;;;;;;;;5011721;28;20037;-75
2022/04/12 02:24:55;;;;;;;3.95;2.90;;;;;;;;;;5011985;28;20109;-75
2022/04/12 02:27:20;;;;;;;4.28;2.85;;;;;;;;;;5011823;28;20116;-76
2022/04/12 02:29:45;;;;;;;3.95;2.60;;;;;;;;;;5011702;28;20045;-75
2022/04/12 02:32:11;;;;;;;4.47;3.05;;;;;;;;;;5009834;28;20660;-74
2022/04/12 02:34:36;;;;;;;6.32;3.17;;;;;;;;;;5011815;28;20033;-74
2022/04/12 02:37:01;;;;;;;4.70;3.03;;;;;;;;;;5011876;28;20032;-74
2022/04/12 02:39:27;;;;;;;4.85;3.40;;;;;;;;;;5011784;28;20049;-74
2022/04/12 02:41:52;;;;;;;4.13;3.40;;;;;;;;;;5011845;28;20049;-74
2022/04/12 02:44:18;;;;;;;4.95;3.42;;;;;;;;;;5012032;28;20099;-75
2022/04/12 02:46:43;;;;;;;3.70;3.00;;;;;;;;;;5011976;28;20098;-74
2022/04/12 02:49:08;;;;;;;5.28;3.53;;;;;;;;;;5011606;28;20550;-75
2022/04/12 02:51:34;;;;;;;5.88;3.22;;;;;;;;;;5012171;28;20558;-74
2022/04/12 02:53:59;;;;;;;4.50;3.17;;;;;;;;;;5011867;28;20487;-74
2022/04/12 02:56:25;;;;;;;4.85;2.95;;;;;;;;;;5012211;28;20026;-74
2022/04/12 02:58:50;;;;;;;3.42;2.75;;;;;;;;;;5011517;28;20029;-75
2022/04/12 03:01:15;;;;;;;4.75;2.97;;;;;;;;;;5011777;28;20460;-74
2022/04/12 03:03:40;;;;;;;2.95;2.60;;;;;;;;;;5011732;28;20041;-74
2022/04/12 03:06:06;;;;;;;2.83;2.50;;;;;;;;;;5010728;28;20032;-75
2022/04/12 03:08:31;;;;;;;3.75;2.72;;;;;;;;;;5010893;28;20615;-74
2022/04/12 03:10:57;;;;;;;3.60;2.50;;;;;;;;;;5011167;28;20641;-74
2022/04/12 03:13:22;;;;;;;3.95;3.20;;;;;;;;;;5011232;28;20030;-75
2022/04/12 03:15:47;;;;;;;3.65;2.75;;;;;;;;;;5011437;28;20095;-74
2022/04/12 03:18:15;;;;;;;3.30;2.63;;;;;;;;;;5011112;28;20026;-74
2022/04/12 03:20:40;;;;;;;3.58;2.88;;;;;;;;;;5011264;28;20108;-74
2022/04/12 03:23:05;;;;;;;3.75;2.90;;;;;;;;;;5011199;28;20511;-74
2022/04/12 03:25:31;;;;;;;3.28;2.80;;;;;;;;;;5011466;28;20030;-75
2022/04/12 03:27:56;;;;;;;7.13;3.22;;;;;;;;;;5011262;28;20068;-73
2022/04/12 03:30:21;;;;;;;6.00;3.65;;;;;;;;;;5011560;28;20018;-74
2022/04/12 03:32:47;;;;;;;3.60;3.08;;;;;;;;;;5011282;28;20029;-74
2022/04/12 03:35:12;;;;;;;4.13;3.15;;;;;;;;;;5010935;28;20041;-74
2022/04/12 03:37:37;;;;;;;5.00;3.25;;;;;;;;;;5011074;28;20100;-76
2022/04/12 03:40:03;;;;;;;4.22;3.70;;;;;;;;;;5009772;28;20476;-74
2022/04/12 03:42:28;;;;;;;3.95;3.22;;;;;;;;;;5011143;28;20033;-74
2022/04/12 03:44:54;;;;;;;5.65;3.53;;;;;;;;;;5011198;28;20037;-74
2022/04/12 03:47:19;;;;;;;4.63;3.13;;;;;;;;;;5011646;28;20160;-74
2022/04/12 03:49:44;;;;;;;5.90;2.72;;;;;;;;;;5011152;28;20018;-73
2022/04/12 03:52:10;;;;;;;4.25;2.50;;;;;;;;;;5011321;28;20037;-76
2022/04/12 03:54:35;;;;;;;3.28;2.80;;;;;;;;;;5010903;28;20391;-74
2022/04/12 03:57:01;;;;;;;4.15;3.17;;;;;;;;;;5011259;28;20467;-74
2022/04/12 03:59:26;;;;;;;3.95;2.35;;;;;;;;;;5010984;28;20119;-74
2022/04/12 04:01:52;;;;;;;4.47;2.90;;;;;;;;;;5010997;28;20026;-75
2022/04/12 04:04:17;;;;;;;2.80;2.50;;;;;;;;;;5010576;28;20494;-74
2022/04/12 04:06:42;;;;;;;4.53;3.58;;;;;;;;;;5011225;28;20021;-74
2022/04/12 04:09:08;;;;;;;4.65;2.85;;;;;;;;;;5010659;28;20101;-74
2022/04/12 04:11:33;;;;;;;6.05;3.42;;;;;;;;;;5010701;28;20044;-74
2022/04/12 04:14:03;;;;;;;5.55;3.00;;;;;;;;;;5009666;28;20034;-74
2022/04/12 04:16:29;;;;;;;5.80;2.83;;;;;;;;;;5011349;28;20033;-75
2022/04/12 04:18:54;;;;;;;3.95;3.00;;;;;;;;;;5010595;28;20026;-74
2022/04/12 04:21:19;;;;;;;5.85;3.25;;;;;;;;;;5012887;28;20080;-75
2022/04/12 04:23:45;;;;;;;4.93;3.03;;;;;;;;;;5014608;28;20045;-74
2022/04/12 04:26:10;;;;;;;7.15;3.15;;;;;;;;;;5014452;28;20026;-74
2022/04/12 04:28:36;;;;;;;3.75;3.00;;;;;;;;;;5014063;28;20368;-75
2022/04/12 04:31:01;;;;;;;4.25;3.20;;;;;;;;;;5013988;28;20490;-75
2022/04/12 04:33:27;;;;;;;6.13;3.15;;;;;;;;;;5014060;28;20029;-74
2022/04/12 04:35:53;;;;;;;6.00;3.17;;;;;;;;;;5014155;28;20475;-74
2022/04/12 04:38:18;;;;;;;4.45;3.08;;;;;;;;;;5014626;28;20102;-74
2022/04/12 04:40:44;;;;;;;7.03;3.42;;;;;;;;;;5014399;28;20026;-75
2022/04/12 04:43:09;;;;;;;4.10;2.60;;;;;;;;;;5014355;28;20045;-73
2022/04/12 04:45:35;;;;;;;3.70;2.97;;;;;;;;;;5012746;28;20026;-74
2022/04/12 04:48:03;;;;;;;4.35;2.90;;;;;;;;;;5014009;28;20085;-74
2022/04/12 04:50:31;;;;;;;5.25;2.85;;;;;;;;;;5014100;28;20022;-75
2022/04/12 04:53:02;;;;;;;5.70;2.50;;;;;;;;;;5014312;28;20061;-75
2022/04/12 04:55:27;;;;;;;2.65;2.33;;;;;;;;;;5013958;28;20375;-74
2022/04/12 04:57:55;;;;;;;3.70;2.63;;;;;;;;;;5014081;28;20026;-76
2022/04/12 05:00:22;;;;;;;4.20;2.78;;;;;;;;;;5014027;28;20068;-75
2022/04/12 05:02:54;;;;;;;6.20;4.40;;;;;;;;;;5013984;28;20021;-74
2022/04/12 05:05:20;;;;;;;4.72;3.15;;;;;;;;;;5011957;28;20036;-75
2022/04/12 05:07:47;;;;;;;7.47;3.30;;;;;;;;;;5013901;28;20558;-74
2022/04/12 05:10:22;;;;;;;4.97;3.00;;;;;;;;;;5012086;28;20442;-75
2022/04/12 05:12:47;;;;;;;4.55;3.33;;;;;;;;;;5013597;28;20021;-74
2022/04/12 05:15:13;;;;;;;5.30;3.38;;;;;;;;;;5012897;28;20026;-74
2022/04/12 05:17:39;;;;;;;4.75;3.30;;;;;;;;;;5013851;28;20057;-74
2022/04/12 05:20:09;;;;;;;6.72;3.00;;;;;;;;;;5012454;28;20022;-74
2022/04/12 05:22:34;;;;;;;5.57;2.90;;;;;;;;;;5021965;28;20029;-75
2022/04/12 05:25:00;;;;;;;8.18;2.92;;;;;;;;;;5013889;28;20109;-74
2022/04/12 05:27:31;;;;;;;5.03;3.30;;;;;;;;;;5028976;28;20029;-74
2022/04/12 05:29:58;;;;;;;4.65;3.05;;;;;;;;;;5031785;28;20375;-74
2022/04/12 05:32:23;;;;;;;4.95;3.00;;;;;;;;;;5032538;28;20044;-75
2022/04/12 05:34:49;;;;;;;6.40;2.95;;;;;;;;;;5033522;28;20029;-74
2022/04/12 05:37:14;;;;;;;5.75;3.38;;;;;;;;;;5032775;28;20041;-76
2022/04/12 05:39:39;;;;;;;6.07;4.05;;;;;;;;;;5033314;28;20025;-75
2022/04/12 05:42:05;;;;;;;8.88;5.18;;;;;;;;;;5029139;28;20539;-75
2022/04/12 05:44:34;;;;;;;9.52;5.72;;;;;;;;;;5013400;28;20144;-76
2022/04/12 05:47:01;;;;;;;9.02;5.78;;;;;;;;;;5012990;28;20022;-77
2022/04/12 05:49:26;;;;;;;9.40;5.05;;;;;;;;;;5013345;28;20037;-76
2022/04/12 05:51:52;;;;;;;6.82;4.57;;;;;;;;;;5012622;28;20033;-77
2022/04/12 05:54:17;;;;;;;7.55;4.20;;;;;;;;;;5012829;28;20022;-75
2022/04/12 05:56:42;;;;;;;6.95;4.00;;;;;;;;;;5012916;28;20113;-75
2022/04/12 05:59:08;;;;;;;8.38;3.47;;;;;;;;;;5012717;28;20024;-75
2022/04/12 06:01:33;;;;;;;5.70;3.60;;;;;;;;;;4993336;28;20062;-76
2022/04/12 06:03:59;;;;;;;6.65;3.75;;;;;;;;;;5012571;28;20026;-76
2022/04/12 06:06:24;;;;;;;5.30;3.30;;;;;;;;;;5011298;28;20545;-75
2022/04/12 06:08:50;;;;;;;4.97;3.08;;;;;;;;;;5012151;28;20037;-75
2022/04/12 06:11:15;;;;;;;9.68;3.58;;;;;;;;;;5011872;28;20026;-73
2022/04/12 06:13:40;;;;;;;6.05;3.35;;;;;;;;;;5009570;28;20116;-74
2022/04/12 06:16:06;;;;;;;4.95;3.90;;;;;;;;;;5016101;28;20060;-75
2022/04/12 06:18:31;;;;;;;3.65;3.15;;;;;;;;;;5016982;28;20041;-76
2022/04/12 06:20:57;;;;;;;6.30;2.97;;;;;;;;;;5004750;28;20030;-75
2022/04/12 06:23:22;;;;;;;5.28;3.20;;;;;;;;;;5003930;28;20030;-77
2022/04/12 06:25:48;;;;;;;5.20;2.50;;;;;;;;;;5004078;28;20025;-78
2022/04/12 06:28:13;;;;;;;4.85;2.90;;;;;;;;;;5004125;28;20026;-76
2022/04/12 06:30:43;;;;;;;7.63;3.88;;;;;;;;;;4998482;28;20491;-75
2022/04/12 06:33:09;;;;;;;7.07;3.88;;;;;;;;;;5006045;28;20100;-77
2022/04/12 06:35:34;;;;;;;8.50;3.45;;;;;;;;;;5006634;28;20176;-74
2022/04/12 06:38:03;;;;;;;4.40;2.80;;;;;;;;;;5004954;28;20091;-76
2022/04/12 06:40:28;;;;;;;8.10;3.25;;;;;;;;;;5004559;28;20022;-75
2022/04/12 06:42:54;;;;;;;3.97;3.17;;;;;;;;;;5002541;28;20051;-75
2022/04/12 06:45:20;;;;;;;4.53;2.83;;;;;;;;;;5003674;28;20028;-76
2022/04/12 06:47:55;;;;;;;6.60;3.25;;;;;;;;;;5004357;28;20232;-75
2022/04/12 06:50:20;;;;;;;5.38;3.00;;;;;;;;;;5005342;28;20028;-75
2022/04/12 06:52:46;;;;;;;9.55;3.58;;;;;;;;;;5003934;28;20105;-75
2022/04/12 06:55:11;;;;;;;5.68;3.08;;;;;;;;;;5004049;28;20072;-74
2022/04/12 06:57:37;;;;;;;5.45;3.00;;;;;;;;;;5003476;28;20075;-75
2022/04/12 07:00:07;;;;;;;6.65;3.33;;;;;;;;;;5003819;28;20061;-73
2022/04/12 07:02:32;;;;;;;11.82;4.28;;;;;;;;;;5003657;28;20026;-78
2022/04/12 07:04:58;;;;;;;12.95;8.40;;;;;;;;;;5004892;28;20029;-75
2022/04/12 07:07:24;;;;;;;6.88;3.65;;;;;;;;;;5002409;28;20373;-75
2022/04/12 07:09:49;;;;;;;6.97;3.67;;;;;;;;;;5000459;28;20502;-76
2022/04/12 07:12:15;;;;;;;6.30;3.15;;;;;;;;;;4994195;28;20026;-78
2022/04/12 07:14:40;;;;;;;4.50;3.33;;;;;;;;;;5003878;28;20026;-74
2022/04/12 07:17:05;;;;;;;5.07;2.88;;;;;;;;;;5003594;28;20061;-75
2022/04/12 07:19:31;;;;;;;5.57;2.70;;;;;;;;;;5003168;28;20551;-75
2022/04/12 07:21:56;;;;;;;8.25;2.83;;;;;;;;;;5013163;28;20411;-76
2022/04/12 07:24:21;;;;;;;12.30;3.17;;;;;;;;;;4999871;28;20113;-78
2022/04/12 07:26:47;;;;;;;7.65;2.88;;;;;;;;;;4995964;28;20033;-74
2022/04/12 07:29:12;;;;;;;9.32;3.03;;;;;;;;;;5003564;28;20276;-74
2022/04/12 07:31:38;;;;;;;8.15;4.35;;;;;;;;;;5004901;28;20053;-76
2022/04/12 07:34:04;;;;;;;15.05;3.90;;;;;;;;;;5003473;28;20033;-75
2022/04/12 07:36:39;;;;;;;13.90;3.78;;;;;;;;;;5004019;28;20076;-74
2022/04/12 07:39:05;;;;;;;5.65;3.00;;;;;;;;;;5004112;28;20018;-75
2022/04/12 07:41:31;;;;;;;4.07;2.67;;;;;;;;;;5003982;28;20058;-75
2022/04/12 07:43:56;;;;;;;7.82;3.08;;;;;;;;;;5003348;28;20061;-75
2022/04/12 07:46:22;;;;;;;7.13;2.85;;;;;;;;;;5002377;28;20030;-77
2022/04/12 07:48:47;;;;;;;6.18;2.78;;;;;;;;;;5002641;28;20050;-75
2022/04/12 07:51:12;;;;;;;5.20;2.50;;;;;;;;;;5003578;28;20026;-74
2022/04/12 07:53:38;;;;;;;5.25;2.50;;;;;;;;;;5003358;28;20048;-76
2022/04/12 07:56:04;;;;;;;4.82;2.42;;;;;;;;;;5004807;28;20030;-78
2022/04/12 07:58:29;;;;;;;3.65;2.47;;;;;;;;;;5007493;28;20029;-75
2022/04/12 08:00:54;;;;;;;3.25;2.35;;;;;;;;;;5014735;28;20022;-76
2022/04/12 08:03:21;;;;;;;3.47;2.20;;;;;;;;;;5010025;28;20060;-73
2022/04/12 08:05:50;;;;;;;3.85;2.50;;;;;;;;;;5006753;28;20446;-75
2022/04/12 08:08:16;;;;;;;5.28;2.70;;;;;;;;;;5007208;28;20491;-73
2022/04/12 08:10:41;;;;;;;7.60;2.22;;;;;;;;;;5005635;28;20072;-76
2022/04/12 08:13:07;;;;;;;4.82;2.45;;;;;;;;;;5005799;28;20117;-74
2022/04/12 08:15:32;;;;;;;4.57;2.08;;;;;;;;;;5006206;28;20017;-76
2022/04/12 08:17:57;;;;;;;3.78;1.90;;;;;;;;;;5007732;28;20032;-76
2022/04/12 08:20:23;;;;;;;2.95;1.70;;;;;;;;;;5006999;28;20029;-74
2022/04/12 08:22:49;;;;;;;1.80;1.70;;;;;;;;;;5006590;28;20037;-75
2022/04/12 08:25:14;;;;;;;2.53;1.90;;;;;;;;;;5010171;28;20029;-77
2022/04/12 08:27:40;;;;;;;3.15;1.92;;;;;;;;;;5015681;28;20030;-74
2022/04/12 08:30:08;;;;;;;3.47;2.00;;;;;;;;;;5015074;28;20025;-75
2022/04/12 08:32:34;;;;;;;3.15;2.00;;;;;;;;;;5006198;28;20522;-75
2022/04/12 08:35:00;;;;;;;4.03;2.33;;;;;;;;;;5042340;23;20353;-73
2022/04/12 08:37:25;;;;;;;4.78;2.05;;;;;;;;;;5034908;28;20092;-73
2022/04/12 08:39:51;;;;;;;1.77;1.65;;;;;;;;;;5030336;28;20045;-73
2022/04/12 08:42:17;;;;;;;4.18;2.28;;;;;;;;;;5035171;28;20025;-72
2022/04/12 08:44:45;;;;;;;6.57;1.90;;;;;;;;;;5035135;28;20106;-72
2022/04/12 08:47:14;;;;;;;5.85;2.05;;;;;;;;;;5032566;28;20025;-72
2022/04/12 08:49:40;;;;;;;5.75;2.20;;;;;;;;;;5029786;28;20115;-73
2022/04/12 08:52:11;;;;;;;7.10;2.08;;;;;;;;;;5040471;28;20103;-73
2022/04/12 08:54:40;;;;;;;5.87;2.17;;;;;;;;;;5026324;28;20149;-73
2022/04/12 08:57:05;;;;;;;3.08;2.10;;;;;;;;;;5026095;28;20262;-73
2022/04/12 08:59:31;;;;;;;3.65;1.80;;;;;;;;;;5026115;28;20029;-73
2022/04/12 09:01:57;;;;;;;10.77;2.03;;;;;;;;;;5026220;28;20039;-72
2022/04/12 09:04:26;;;;;;;4.85;1.88;;;;;;;;;;5024769;28;20034;-72
2022/04/12 09:06:56;;;;;;;5.88;1.77;;;;;;;;;;5025416;28;20035;-73
2022/04/12 09:09:24;;;;;;;4.97;1.70;;;;;;;;;;5025341;28;20045;-73
2022/04/12 09:12:02;;;;;;;5.40;1.95;;;;;;;;;;5025633;28;20314;-72
2022/04/12 09:14:46;;;;;;;8.13;2.20;;;;;;;;;;5024752;28;20032;-72
2022/04/12 09:17:19;;;;;;;5.28;2.15;;;;;;;;;;5026431;28;20036;-73
2022/04/12 09:19:51;;;;;;;9.73;2.05;;;;;;;;;;5026293;28;20034;-73
2022/04/12 09:22:24;;;;;;;10.43;2.35;;;;;;;;;;5024526;28;20025;-72
2022/04/12 09:24:51;;;;;;;10.55;1.85;;;;;;;;;;5024682;28;20025;-73
2022/04/12 09:27:19;;;;;;;6.50;1.90;;;;;;;;;;5025975;28;20514;-73
2022/04/12 09:29:50;;;;;;;5.45;1.88;;;;;;;;;;5025874;28;20057;-73
2022/04/12 09:32:18;;;;;;;5.30;1.80;;;;;;;;;;5025206;28;20483;-73
2022/04/12 09:34:44;;;;;;;6.70;1.75;;;;;;;;;;5030959;28;20546;-73
2022/04/12 09:37:31;;;;;;;2.72;1.60;;;;;;;;;;5039375;28;20028;-73
2022/04/12 09:39:59;;;;;;;8.70;1.60;;;;;;;;;;5026319;28;20026;-73
2022/04/12 09:42:48;;;;;;;4.13;2.05;;;;;;;;;;5026003;28;20032;-75
2022/04/12 09:45:24;;;;;;;5.45;1.50;;;;;;;;;;5024792;28;20025;-72
2022/04/12 09:47:55;;;;;;;6.70;1.70;;;;;;;;;;5023894;28;20029;-75
2022/04/12 09:50:24;;;;;;;6.07;1.63;;;;;;;;;;5025113;28;20149;-73
2022/04/12 09:52:51;;;;;;;4.05;1.33;;;;;;;;;;5024867;28;20392;-73
2022/04/12 09:55:36;;;;;;;2.25;1.40;;;;;;;;;;5024329;28;20060;-73
2022/04/12 09:58:06;;;;;;;4.05;1.45;;;;;;;;;;5024395;28;20025;-74
2022/04/12 10:00:33;;;;;;;5.10;1.40;;;;;;;;;;5020354;28;20063;-74
2022/04/12 10:03:02;;;;;;;2.47;1.30;;;;;;;;;;5024713;28;20033;-74
2022/04/12 10:05:28;;;;;;;4.82;1.52;;;;;;;;;;5024763;28;20511;-74
2022/04/12 10:07:57;;;;;;;3.00;1.33;;;;;;;;;;5030726;28;20083;-74
2022/04/12 10:10:23;;;;;;;1.75;1.10;;;;;;;;;;5025647;28;20021;-74
2022/04/12 10:12:49;;;;;;;1.90;1.48;;;;;;;;;;5026433;28;20064;-72
2022/04/12 10:15:15;;;;;;;4.30;1.40;;;;;;;;;;5027014;28;20069;-74
2022/04/12 10:17:41;;;;;;;2.58;1.50;;;;;;;;;;5028258;28;20060;-75
2022/04/12 10:20:07;;;;;;;3.78;1.30;;;;;;;;;;5030713;28;20041;-73
2022/04/12 10:22:33;;;;;;;1.90;1.30;;;;;;;;;;5029489;28;20106;-73
2022/04/12 10:25:01;;;;;;;3.90;1.40;;;;;;;;;;5030306;28;20059;-74
2022/04/12 10:27:27;;;;;;;5.18;1.20;;;;;;;;;;5030649;28;20037;-73
2022/04/12 10:30:14;;;;;;;2.65;1.40;;;;;;;;;;5030334;28;20031;-74
2022/04/12 10:33:00;;;;;;;2.10;1.20;;;;;;;;;;5030590;28;20032;-73
2022/04/12 10:35:26;;;;;;;4.43;1.38;;;;;;;;;;5033294;28;20532;-73
2022/04/12 10:37:56;;;;;;;3.20;1.27;;;;;;;;;;5030496;28;20033;-73
2022/04/12 10:40:23;;;;;;;2.83;1.00;;;;;;;;;;5030850;28;20163;-74
2022/04/12 10:42:49;;;;;;;3.05;1.20;;;;;;;;;;5030121;28;20130;-72
2022/04/12 10:45:15;;;;;;;1.00;0.90;;;;;;;;;;5030195;28;20035;-71
2022/04/12 10:47:43;;;;;;;6.43;1.60;;;;;;;;;;5029322;28;20042;-73
2022/04/12 10:50:11;;;;;;;13.18;1.95;;;;;;;;;;5029229;28;20025;-71
2022/04/12 10:52:48;;;;;;;10.02;1.67;;;;;;;;;;5030655;28;20022;-74
2022/04/12 10:55:27;;;;;;;8.85;1.70;;;;;;;;;;5033171;28;20021;-74
2022/04/12 10:57:53;;;;;;;10.25;2.00;;;;;;;;;;5030401;28;20044;-73
2022/04/12 11:00:21;;;;;;;4.18;1.30;;;;;;;;;;5029939;28;20026;-74
2022/04/12 11:02:55;;;;;;;11.48;1.95;;;;;;;;;;5030352;28;20430;-73
2022/04/12 11:05:32;;;;;;;5.75;1.30;;;;;;;;;;5028116;28;20029;-71
2022/04/12 11:07:58;;;;;;;5.38;1.92;;;;;;;;;;5029655;28;20045;-74
2022/04/12 11:10:24;;;;;;;20.25;9.02;;;;;;;;;;5029350;28;20033;-73
2022/04/12 11:13:05;;;;;;;16.33;4.55;;;;;;;;;;5028866;28;20033;-72
2022/04/12 11:15:32;;;;;;;5.93;2.63;;;;;;;;;;5029944;28;20024;-74
2022/04/12 11:18:15;;;;;;;10.63;2.55;;;;;;;;;;5030078;28;20397;-73
2022/04/12 11:20:48;;;;;;;5.18;2.90;;;;;;;;;;5029809;28;20029;-73
2022/04/12 11:23:14;;;;;;;4.63;2.50;;;;;;;;;;5029966;28;20163;-72
2022/04/12 11:25:45;;;;;;;4.15;2.20;;;;;;;;;;5029725;28;20017;-73
2022/04/12 11:28:15;;;;;;;2.60;1.98;;;;;;;;;;5029903;28;20025;-73
2022/04/12 11:30:41;;;;;;;2.95;1.50;;;;;;;;;;5028836;28;20079;-72
2022/04/12 11:33:08;;;;;;;2.22;1.35;;;;;;;;;;5030325;28;20124;-73
2022/04/12 11:35:33;;;;;;;2.95;1.48;;;;;;;;;;5030024;28;20040;-72
2022/04/12 11:38:03;;;;;;;2.40;1.30;;;;;;;;;;5029515;28;20029;-71
2022/04/12 11:40:30;;;;;;;4.20;1.50;;;;;;;;;;5028453;28;20041;-73
2022/04/12 11:42:56;;;;;;;3.38;1.50;;;;;;;;;;5029659;28;20028;-73
2022/04/12 11:45:33;;;;;;;4.93;1.80;;;;;;;;;;5029759;28;20025;-73
2022/04/12 11:47:59;;;;;;;3.83;1.30;;;;;;;;;;5029828;28;20021;-72
2022/04/12 11:50:24;;;;;;;2.75;1.40;;;;;;;;;;5029938;28;20045;-72
2022/04/12 11:52:49;;;;;;;6.13;1.83;;;;;;;;;;5029330;28;20037;-73
2022/04/12 11:55:15;;;;;;;4.13;1.75;;;;;;;;;;5017620;28;20030;-73
2022/04/12 11:57:40;;;;;;;4.55;1.63;;;;;;;;;;5013936;28;20026;-72
2022/04/12 12:00:07;;;;;;;3.85;1.70;;;;;;;;;;5029522;28;20022;-73
2022/04/12 12:02:36;;;;;;;5.70;1.77;;;;;;;;;;5029845;28;20097;-71
2022/04/12 12:05:11;;;;;;;7.40;1.88;;;;;;;;;;5029438;28;20021;-70
2022/04/12 12:07:38;;;;;;;3.50;1.33;;;;;;;;;;5029245;28;20049;-72
2022/04/12 12:10:08;;;;;;;3.03;1.60;;;;;;;;;;5029432;28;20029;-75
2022/04/12 12:12:35;;;;;;;3.60;1.40;;;;;;;;;;5029397;28;20108;-69
2022/04/12 12:15:23;;;;;;;4.70;1.50;;;;;;;;;;5029214;28;20064;-75
2022/04/12 12:17:51;;;;;;;2.88;1.55;;;;;;;;;;5029293;28;20026;-72
2022/04/12 12:20:18;;;;;;;3.50;1.65;;;;;;;;;;5028976;28;20026;-72
2022/04/12 12:22:46;;;;;;;5.30;1.65;;;;;;;;;;5029578;28;20049;-74
2022/04/12 12:25:18;;;;;;;3.42;1.58;;;;;;;;;;5029102;28;20533;-74
2022/04/12 12:27:51;;;;;;;3.08;1.48;;;;;;;;;;5029391;28;20026;-73
2022/04/12 12:30:20;;;;;;;4.93;1.80;;;;;;;;;;5028696;28;20061;-71
2022/04/12 12:32:45;;;;;;;5.10;1.80;;;;;;;;;;5029400;28;20025;-73
2022/04/12 12:35:15;;;;;;;2.75;1.60;;;;;;;;;;5029006;28;20084;-73
2022/04/12 12:37:42;;;;;;;4.85;1.58;;;;;;;;;;5029397;28;20029;-75
2022/04/12 12:40:22;;;;;;;4.93;1.45;;;;;;;;;;5029017;28;20029;-72
2022/04/12 12:42:49;;;;;;;3.97;1.77;;;;;;;;;;5031623;28;20036;-72
2022/04/12 12:45:17;;;;;;;4.47;1.70;;;;;;;;;;5032355;28;20026;-74
2022/04/12 12:47:44;;;;;;;1.98;1.33;;;;;;;;;;5032380;28;20079;-73
2022/04/12 12:50:15;;;;;;;3.45;1.40;;;;;;;;;;5032486;28;20379;-75
2022/04/12 12:52:43;;;;;;;3.40;1.30;;;;;;;;;;5032826;28;20033;-75
2022/04/12 12:55:23;;;;;;;3.05;1.50;;;;;;;;;;5032714;28;20498;-72
2022/04/12 12:57:51;;;;;;;3.55;1.52;;;;;;;;;;5032395;28;20033;-74
2022/04/12 13:00:18;;;;;;;3.67;1.30;;;;;;;;;;5032711;28;20025;-73
2022/04/12 13:02:44;;;;;;;4.28;1.23;;;;;;;;;;5032272;28;20029;-73
2022/04/12 13:05:12;;;;;;;2.70;1.20;;;;;;;;;;5030720;28;20487;-71
2022/04/12 13:07:39;;;;;;;2.53;1.30;;;;;;;;;;5032336;28;20220;-72
2022/04/12 13:10:16;;;;;;;2.72;1.20;;;;;;;;;;5032203;28;20037;-73
2022/04/12 13:12:43;;;;;;;3.53;1.30;;;;;;;;;;5032629;28;20033;-73
2022/04/12 13:15:10;;;;;;;5.00;1.40;;;;;;;;;;5032539;28;20057;-74
2022/04/12 13:17:36;;;;;;;4.82;1.27;;;;;;;;;;5032025;28;20028;-73
2022/04/12 13:20:03;;;;;;;2.13;1.20;;;;;;;;;;5031724;28;20484;-72
2022/04/12 13:22:29;;;;;;;3.35;1.30;;;;;;;;;;5031797;28;20474;-73
2022/04/12 13:24:54;;;;;;;2.85;1.17;;;;;;;;;;5032019;28;20472;-73
2022/04/12 13:27:21;;;;;;;4.35;1.33;;;;;;;;;;5032158;28;20034;-71
2022/04/12 13:29:47;;;;;;;4.22;1.42;;;;;;;;;;5030654;28;20025;-74
2022/04/12 13:32:13;;;;;;;4.55;1.27;;;;;;;;;;5032036;28;20208;-72
2022/04/12 13:34:38;;;;;;;2.55;1.17;;;;;;;;;;5031248;28;20615;-73
2022/04/12 13:37:04;;;;;;;6.13;1.65;;;;;;;;;;5031874;28;20032;-74
2022/04/12 13:39:30;;;;;;;3.65;1.40;;;;;;;;;;5031870;28;20048;-75
2022/04/12 13:41:55;;;;;;;11.68;5.70;;;;;;;;;;5031809;28;20479;-74
2022/04/12 13:44:21;;;;;;;5.15;1.42;;;;;;;;;;5031695;28;20388;-74
2022/04/12 13:46:46;;;;;;;3.33;1.30;;;;;;;;;;5031780;28;20030;-75
2022/04/12 13:49:11;;;;;;;10.32;4.88;;;;;;;;;;5032052;28;20057;-75
2022/04/12 13:51:37;;;;;;;3.25;1.30;;;;;;;;;;5031310;28;20029;-74
2022/04/12 13:54:02;;;;;;;15.27;8.80;;;;;;;;;;5030996;28;20108;-75
2022/04/12 13:56:28;;;;;;;4.57;1.40;;;;;;;;;;5030042;28;20030;-73
2022/04/12 13:58:53;;;;;;;3.88;1.40;;;;;;;;;;5031058;28;20021;-75
2022/04/12 14:01:19;;;;;;;1.70;1.30;;;;;;;;;;5031403;28;20565;-73
2022/04/12 14:03:44;;;;;;;5.97;1.67;;;;;;;;;;5031319;28;20475;-73
2022/04/12 14:06:10;;;;;;;2.60;1.30;;;;;;;;;;5031165;28;20029;-73
2022/04/12 14:08:36;;;;;;;3.42;1.40;;;;;;;;;;5031145;28;20029;-73
2022/04/12 14:11:02;;;;;;;2.88;1.30;;;;;;;;;;5030862;28;20040;-72
2022/04/12 14:13:28;;;;;;;6.72;1.38;;;;;;;;;;5031056;28;20028;-72
2022/04/12 14:15:54;;;;;;;4.68;1.50;;;;;;;;;;5031492;28;20151;-75
2022/04/12 14:18:20;;;;;;;6.57;1.60;;;;;;;;;;5031219;28;20052;-72
2022/04/12 14:20:46;;;;;;;6.43;1.25;;;;;;;;;;5030783;28;20045;-72
2022/04/12 14:23:12;;;;;;;2.80;1.00;;;;;;;;;;5030845;28;20458;-72
2022/04/12 14:25:38;;;;;;;3.83;1.23;;;;;;;;;;5030465;28;20556;-73
2022/04/12 14:28:05;;;;;;;3.22;1.30;;;;;;;;;;5030570;28;20021;-72
2022/04/12 14:30:31;;;;;;;2.88;1.40;;;;;;;;;;5030901;28;20026;-73
2022/04/12 14:32:56;;;;;;;3.10;1.10;;;;;;;;;;5030787;28;20033;-72
2022/04/12 14:35:22;;;;;;;3.45;1.27;;;;;;;;;;5058816;22;20043;-75
2022/04/12 14:37:48;;;;;;;3.33;0.98;;;;;;;;;;5047782;28;20060;-76
2022/04/12 14:40:13;;;;;;;5.25;1.30;;;;;;;;;;5049301;28;20442;-74
2022/04/12 14:42:38;;;;;;;3.03;1.00;;;;;;;;;;5050903;28;20029;-75
2022/04/12 14:45:04;;;;;;;2.38;1.00;;;;;;;;;;5050463;28;20052;-75